createdAt,value
2022-11-04T00:02:04.335Z,16.23
2022-11-04T00:04:31.167Z,16.90
2022-11-04T00:06:58.216Z,14.70
2022-11-04T00:09:29.840Z,14.77
2022-11-04T00:12:15.900Z,14.60
2022-11-04T00:14:42.767Z,12.30
2022-11-04T00:17:21.974Z,12.33
2022-11-04T00:20:12.437Z,12.73
2022-11-04T00:23:00.512Z,12.30
2022-11-04T00:25:45.579Z,12.27
2022-11-04T00:28:36.380Z,13.20
2022-11-04T00:31:26.847Z,13.87
2022-11-04T00:33:57.275Z,13.83
2022-11-04T00:36:25.599Z,13.37
2022-11-04T00:38:52.561Z,13.40
2022-11-04T00:41:29.298Z,11.67
2022-11-04T00:43:59.295Z,12.37
2022-11-04T00:46:28.164Z,12.00
2022-11-04T00:48:54.917Z,12.30
2022-11-04T00:51:21.790Z,11.10
2022-11-04T00:53:49.290Z,12.70
2022-11-04T00:56:16.100Z,12.03
2022-11-04T00:58:42.585Z,11.63
2022-11-04T01:01:12.046Z,11.87
2022-11-04T01:03:39.271Z,11.90
2022-11-04T01:06:06.225Z,11.63
2022-11-04T01:08:32.744Z,11.60
2022-11-04T01:11:08.248Z,11.83
2022-11-04T01:13:35.430Z,12.40
2022-11-04T01:16:05.502Z,12.73
2022-11-04T01:18:32.299Z,12.27
2022-11-04T01:21:04.120Z,12.93
2022-11-04T01:23:33.317Z,13.20
2022-11-04T01:25:59.820Z,12.90
2022-11-04T01:28:26.337Z,12.73
2022-11-04T01:30:52.795Z,11.60
2022-11-04T01:33:19.270Z,12.57
2022-11-04T01:35:45.785Z,12.40
2022-11-04T01:38:12.321Z,11.93
2022-11-04T01:40:40.489Z,12.27
2022-11-04T01:43:17.991Z,12.07
2022-11-04T01:46:27.184Z,12.53
2022-11-04T01:49:14.142Z,12.37
2022-11-04T01:51:45.831Z,12.57
2022-11-04T01:54:13.356Z,13.77
2022-11-04T01:56:42.389Z,13.67
2022-11-04T01:59:20.032Z,12.70
2022-11-04T02:01:47.160Z,11.87
2022-11-04T02:04:26.182Z,11.50
2022-11-04T02:06:57.660Z,12.33
2022-11-04T02:09:28.081Z,11.50
2022-11-04T02:12:13.328Z,11.13
2022-11-04T02:14:41.383Z,12.47
2022-11-04T02:24:14.077Z,12.10
2022-11-04T02:29:15.150Z,10.30
2022-11-04T02:35:10.116Z,10.60
2022-11-04T02:39:13.925Z,11.07
2022-11-04T02:43:13.122Z,11.67
2022-11-04T02:45:51.395Z,12.70
2022-11-04T02:49:56.144Z,12.53
2022-11-04T02:52:38.620Z,13.77
2022-11-04T02:55:18.685Z,13.67
2022-11-04T02:57:47.837Z,14.10
2022-11-04T03:00:15.289Z,12.97
2022-11-04T03:02:53.489Z,13.13
2022-11-04T03:05:27.471Z,12.23
2022-11-04T03:08:00.974Z,12.00
2022-11-04T03:10:43.074Z,11.67
2022-11-04T03:13:45.957Z,11.90
2022-11-04T03:16:22.760Z,12.70
2022-11-04T03:19:15.718Z,12.17
2022-11-04T03:21:54.107Z,13.27
2022-11-04T03:24:20.806Z,12.80
2022-11-04T03:27:12.467Z,13.87
2022-11-04T03:30:10.908Z,14.03
2022-11-04T03:35:06.349Z,13.30
2022-11-04T03:37:33.920Z,12.63
2022-11-04T03:40:01.993Z,12.40
2022-11-04T03:42:31.996Z,12.23
2022-11-04T03:44:59.679Z,12.63
2022-11-04T03:47:29.603Z,12.97
2022-11-04T03:50:27.217Z,12.43
2022-11-04T03:52:54.365Z,12.73
2022-11-04T03:55:27.686Z,11.93
2022-11-04T03:58:07.986Z,12.50
2022-11-04T04:00:49.444Z,12.33
2022-11-04T04:03:26.405Z,11.60
2022-11-04T04:06:10.060Z,12.23
2022-11-04T04:08:55.282Z,11.87
2022-11-04T04:11:42.362Z,12.97
2022-11-04T04:15:20.723Z,12.53
2022-11-04T04:17:55.611Z,13.00
2022-11-04T04:20:28.529Z,14.07
2022-11-04T04:23:37.172Z,14.07
2022-11-04T04:26:26.710Z,13.97
2022-11-04T04:28:56.476Z,14.63
2022-11-04T04:31:44.751Z,13.27
2022-11-04T04:34:11.597Z,14.63
2022-11-04T04:37:00.751Z,13.50
2022-11-04T04:40:52.173Z,13.17
2022-11-04T04:43:37.201Z,12.87
2022-11-04T04:46:03.725Z,13.70
2022-11-04T04:48:30.517Z,12.73
2022-11-04T04:51:01.280Z,11.93
2022-11-04T04:53:27.782Z,12.60
2022-11-04T04:55:54.284Z,13.17
2022-11-04T04:58:20.853Z,13.73
2022-11-04T05:00:47.329Z,13.37
2022-11-04T05:03:13.798Z,12.47
2022-11-04T05:05:40.297Z,12.47
2022-11-04T05:08:08.377Z,12.93
2022-11-04T05:10:35.445Z,13.17
2022-11-04T05:13:20.158Z,13.30
2022-11-04T05:15:46.662Z,13.30
2022-11-04T05:18:13.121Z,13.00
2022-11-04T05:20:39.639Z,14.00
2022-11-04T05:23:07.272Z,12.80
2022-11-04T05:25:33.937Z,14.43
2022-11-04T05:28:02.134Z,13.53
2022-11-04T05:30:28.881Z,13.83
2022-11-04T05:32:58.565Z,14.43
2022-11-04T05:35:28.221Z,14.70
2022-11-04T05:37:57.534Z,14.57
2022-11-04T05:40:24.335Z,13.53
2022-11-04T05:42:50.822Z,13.10
2022-11-04T05:45:17.557Z,14.70
2022-11-04T05:47:44.069Z,12.53
2022-11-04T05:50:10.542Z,11.73
2022-11-04T05:52:37.051Z,12.17
2022-11-04T05:55:03.854Z,12.07
2022-11-04T05:57:30.334Z,12.30
2022-11-04T05:59:56.810Z,11.57
2022-11-04T06:02:23.526Z,11.83
2022-11-04T06:04:50.090Z,12.13
2022-11-04T06:07:16.574Z,12.00
2022-11-04T06:09:43.047Z,11.50
2022-11-04T06:12:16.076Z,12.50
2022-11-04T06:14:45.520Z,12.10
2022-11-04T06:17:21.457Z,12.93
2022-11-04T06:19:48.618Z,12.37
2022-11-04T06:22:18.687Z,12.40
2022-11-04T06:24:45.708Z,12.20
2022-11-04T06:27:12.616Z,12.50
2022-11-04T06:29:40.397Z,13.53
2022-11-04T06:32:13.218Z,13.60
2022-11-04T06:34:40.126Z,14.23
2022-11-04T06:37:07.441Z,13.17
2022-11-04T06:39:33.952Z,15.03
2022-11-04T06:42:02.566Z,12.20
2022-11-04T06:44:29.843Z,16.30
2022-11-04T06:46:56.427Z,13.73
2022-11-04T06:49:23.238Z,12.97
2022-11-04T06:51:51.217Z,13.13
2022-11-04T06:54:18.191Z,13.63
2022-11-04T06:56:45.310Z,13.70
2022-11-04T06:59:18.626Z,14.23
2022-11-04T07:01:45.645Z,13.77
2022-11-04T07:04:12.257Z,13.70
2022-11-04T07:06:44.156Z,13.10
2022-11-04T07:09:14.398Z,15.03
2022-11-04T07:11:42.721Z,16.90
2022-11-04T07:14:09.915Z,16.87
2022-11-04T07:16:36.704Z,17.30
2022-11-04T07:19:04.114Z,16.10
2022-11-04T07:21:30.872Z,16.20
2022-11-04T07:23:57.978Z,14.90
2022-11-04T07:26:24.487Z,16.03
2022-11-04T07:28:51.201Z,15.33
2022-11-04T07:31:17.858Z,15.23
2022-11-04T07:33:49.028Z,15.30
2022-11-04T07:36:16.439Z,14.80
2022-11-04T07:38:43.132Z,13.40
2022-11-04T07:41:13.987Z,13.27
2022-11-04T07:43:40.501Z,13.60
2022-11-04T07:46:11.650Z,14.10
2022-11-04T07:48:38.814Z,14.00
2022-11-04T07:51:08.334Z,14.93
2022-11-04T07:53:35.163Z,14.23
2022-11-04T07:56:07.827Z,14.20
2022-11-04T07:58:34.623Z,15.63
2022-11-04T08:01:06.209Z,16.27
2022-11-04T08:03:36.297Z,16.20
2022-11-04T08:06:08.097Z,17.17
2022-11-04T08:08:35.245Z,17.40
2022-11-04T08:11:15.868Z,17.93
2022-11-04T08:13:44.753Z,18.60
2022-11-04T08:16:17.751Z,18.37
2022-11-04T08:18:45.415Z,16.37
2022-11-04T08:21:12.327Z,16.77
2022-11-04T08:23:39.522Z,17.73
2022-11-04T08:26:11.223Z,18.00
2022-11-04T08:28:38.082Z,18.00
2022-11-04T08:31:10.157Z,18.47
2022-11-04T08:33:36.890Z,18.70
2022-11-04T08:36:08.661Z,17.90
2022-11-04T08:38:36.259Z,17.87
2022-11-04T08:41:06.703Z,18.87
2022-11-04T08:43:34.112Z,19.23
2022-11-04T08:46:01.525Z,18.33
2022-11-04T08:48:28.161Z,16.93
2022-11-04T08:50:58.177Z,16.07
2022-11-04T08:53:25.212Z,15.67
2022-11-04T08:55:51.780Z,16.53
2022-11-04T08:58:18.744Z,16.03
2022-11-04T09:00:45.222Z,16.03
2022-11-04T09:03:11.983Z,14.57
2022-11-04T09:05:44.237Z,14.30
2022-11-04T09:08:16.071Z,14.43
2022-11-04T09:10:45.251Z,14.43
2022-11-04T09:13:13.083Z,13.93
2022-11-04T09:15:41.529Z,14.63
2022-11-04T09:18:08.124Z,14.10
2022-11-04T09:20:37.726Z,13.57
2022-11-04T09:23:05.182Z,14.20
2022-11-04T09:25:32.396Z,13.83
2022-11-04T09:27:59.623Z,12.43
2022-11-04T09:30:26.395Z,12.23
2022-11-04T09:32:53.130Z,12.20
2022-11-04T09:35:19.749Z,11.57
2022-11-04T09:37:46.338Z,11.17
2022-11-04T09:40:18.899Z,11.00
2022-11-04T09:45:30.720Z,9.63
2022-11-04T09:48:15.027Z,10.20
2022-11-04T09:50:50.259Z,10.17
2022-11-04T09:54:22.582Z,10.33
2022-11-04T09:56:52.309Z,10.57
2022-11-04T09:59:34.423Z,10.73
2022-11-04T10:02:44.890Z,10.27
2022-11-04T10:07:37.001Z,10.63
2022-11-04T10:11:43.813Z,9.53
2022-11-04T10:17:34.698Z,9.50
2022-11-04T10:23:31.501Z,9.57
2022-11-04T10:27:36.017Z,9.53
2022-11-04T10:30:15.053Z,8.73
2022-11-04T10:33:40.970Z,8.93
2022-11-04T10:36:14.694Z,8.40
2022-11-04T10:38:54.088Z,9.00
2022-11-04T10:41:42.705Z,9.67
2022-11-04T10:44:28.835Z,9.67
2022-11-04T10:51:57.199Z,10.17
2022-11-04T10:54:26.801Z,10.27
2022-11-04T10:56:55.849Z,10.73
2022-11-04T11:00:14.400Z,10.30
2022-11-04T11:02:46.816Z,10.77
2022-11-04T11:05:46.835Z,11.17
2022-11-04T11:08:33.328Z,10.70
2022-11-04T11:11:00.125Z,11.43
2022-11-04T11:13:35.349Z,11.90
2022-11-04T11:16:16.510Z,10.63
2022-11-04T11:18:43.045Z,12.47
2022-11-04T11:21:22.559Z,11.93
2022-11-04T11:23:50.559Z,13.77
2022-11-04T11:26:29.922Z,11.90
2022-11-04T11:29:01.687Z,14.23
2022-11-04T11:31:38.432Z,13.60
2022-11-04T11:34:20.425Z,14.30
2022-11-04T11:36:47.940Z,13.73
2022-11-04T11:39:22.297Z,14.70
2022-11-04T11:42:06.992Z,15.27
2022-11-04T11:44:47.398Z,13.73
2022-11-04T11:47:37.467Z,14.77
2022-11-04T11:50:27.875Z,15.30
2022-11-04T11:53:18.913Z,14.07
2022-11-04T11:56:09.515Z,13.47
2022-11-04T12:02:27.993Z,13.50
2022-11-04T12:14:25.558Z,14.80
2022-11-04T12:19:19.935Z,14.33
2022-11-04T12:23:12.987Z,14.30
2022-11-04T12:27:58.444Z,14.87
2022-11-04T12:30:32.317Z,13.67
2022-11-04T12:36:18.789Z,13.23
2022-11-04T12:42:32.442Z,12.10
2022-11-04T12:47:14.782Z,11.43
2022-11-04T12:50:05.716Z,11.80
2022-11-04T12:53:18.653Z,12.57
2022-11-04T12:56:16.935Z,14.27
2022-11-04T13:00:40.724Z,13.63
2022-11-04T13:03:20.659Z,12.93
2022-11-04T13:06:14.943Z,11.40
2022-11-04T13:08:53.981Z,11.00
2022-11-04T13:11:41.234Z,6.90
2022-11-04T13:14:29.369Z,3.07
2022-11-04T13:17:06.830Z,1.40
2022-11-04T13:19:47.892Z,1.13
2022-11-04T13:22:25.809Z,1.60
2022-11-04T13:25:44.409Z,1.30
2022-11-04T13:28:14.441Z,1.47
2022-11-04T13:31:47.319Z,1.30
2022-11-04T13:35:03.380Z,0.80
2022-11-04T13:38:11.833Z,0.80
2022-11-04T13:42:37.397Z,0.50
2022-11-04T13:45:18.015Z,0.20
2022-11-04T13:47:57.829Z,0.20
2022-11-04T13:50:40.870Z,0.40
2022-11-04T13:53:11.086Z,0.30
2022-11-04T13:55:50.206Z,0.43
2022-11-04T13:58:27.310Z,0.47
2022-11-04T14:01:26.975Z,0.30
2022-11-04T14:04:41.197Z,0.20
2022-11-04T14:07:11.869Z,0.30
2022-11-04T14:12:54.487Z,0.30
2022-11-04T14:19:12.294Z,0.50
2022-11-04T14:22:09.125Z,0.53
2022-11-04T14:24:35.659Z,0.70
2022-11-04T14:27:02.870Z,0.90
2022-11-04T14:29:29.357Z,0.70
2022-11-04T14:31:59.902Z,0.60
2022-11-04T14:34:42.870Z,0.67
2022-11-04T14:37:42.820Z,0.50
2022-11-04T14:40:43.500Z,0.37
2022-11-04T14:43:31.281Z,0.40
2022-11-04T14:46:00.968Z,0.60
2022-11-04T14:48:29.157Z,0.60
2022-11-04T14:50:57.239Z,1.93
2022-11-04T14:53:34.008Z,0.77
2022-11-04T14:56:33.968Z,0.60
2022-11-04T14:59:06.448Z,0.70
2022-11-04T15:01:37.975Z,0.70
2022-11-04T15:04:24.429Z,0.90
2022-11-04T15:07:03.927Z,1.20
2022-11-04T15:09:34.836Z,0.90
2022-11-04T15:12:32.014Z,2.07
2022-11-04T15:14:59.570Z,2.50
2022-11-04T15:17:32.337Z,1.77
2022-11-04T15:20:03.939Z,1.60
2022-11-04T15:22:30.614Z,1.40
2022-11-04T15:25:05.064Z,1.60
2022-11-04T15:27:33.609Z,1.40
2022-11-04T15:30:03.279Z,1.60
2022-11-04T15:32:30.163Z,1.30
2022-11-04T15:34:57.518Z,1.30
2022-11-04T15:37:25.860Z,2.77
2022-11-04T15:39:57.476Z,1.77
2022-11-04T15:42:44.726Z,2.70
2022-11-04T15:46:18.778Z,2.00
2022-11-04T15:49:06.589Z,2.17
2022-11-04T15:51:42.839Z,2.80
2022-11-04T15:54:28.858Z,4.37
2022-11-04T15:57:00.166Z,2.80
2022-11-04T15:59:34.787Z,3.10
2022-11-04T16:02:05.416Z,2.77
2022-11-04T16:04:33.003Z,2.97
2022-11-04T16:07:39.219Z,2.97
2022-11-04T16:10:36.245Z,2.70
2022-11-04T16:14:56.940Z,12.50
2022-11-04T16:17:24.884Z,5.90
2022-11-04T16:19:58.090Z,4.70
2022-11-04T16:22:46.271Z,10.33
2022-11-04T16:25:22.894Z,10.77
2022-11-04T16:27:50.382Z,8.13
2022-11-04T16:30:22.597Z,8.17
2022-11-04T16:32:55.147Z,4.30
2022-11-04T16:35:27.505Z,2.63
2022-11-04T16:37:55.805Z,2.17
2022-11-04T16:40:24.240Z,2.63
2022-11-04T16:42:52.465Z,2.27
2022-11-04T16:45:45.588Z,2.43
2022-11-04T16:48:20.345Z,2.90
2022-11-04T16:50:48.165Z,3.33
2022-11-04T16:53:14.627Z,3.87
2022-11-04T16:55:43.635Z,7.30
2022-11-04T16:58:17.222Z,7.00
2022-11-04T17:00:43.752Z,6.70
2022-11-04T17:03:22.275Z,3.20
2022-11-04T17:05:55.714Z,2.03
2022-11-04T17:08:24.177Z,2.70
2022-11-04T17:10:50.716Z,2.43
2022-11-04T17:13:17.252Z,3.07
2022-11-04T17:15:43.740Z,4.10
2022-11-04T17:18:15.671Z,3.67
2022-11-04T17:20:47.342Z,2.30
2022-11-04T17:23:15.063Z,3.10
2022-11-04T17:25:42.316Z,1.90
2022-11-04T17:28:09.073Z,1.63
2022-11-04T17:30:36.268Z,2.00
2022-11-04T17:33:07.003Z,1.80
2022-11-04T17:35:41.093Z,1.87
2022-11-04T17:38:09.415Z,2.83
2022-11-04T17:42:39.293Z,2.17
2022-11-04T17:45:06.428Z,2.20
2022-11-04T17:47:37.550Z,2.87
2022-11-04T17:50:09.020Z,2.60
2022-11-04T17:52:36.663Z,3.67
2022-11-04T17:55:04.481Z,3.97
2022-11-04T17:57:33.294Z,3.20
2022-11-04T17:59:59.865Z,1.90
2022-11-04T18:02:26.533Z,1.80
2022-11-04T18:04:53.076Z,1.73
2022-11-04T18:07:19.566Z,2.60
2022-11-04T18:09:46.101Z,2.03
2022-11-04T18:12:30.685Z,1.83
2022-11-04T18:14:57.165Z,1.73
2022-11-04T18:17:24.170Z,1.70
2022-11-04T18:19:51.952Z,1.50
2022-11-04T18:22:19.025Z,1.40
2022-11-04T18:24:47.139Z,1.47
2022-11-04T18:27:15.028Z,2.20
2022-11-04T18:29:41.542Z,2.00
2022-11-04T18:32:08.044Z,1.90
2022-11-04T18:34:34.961Z,1.30
2022-11-04T18:37:01.430Z,1.30
2022-11-04T18:39:27.914Z,1.37
2022-11-04T18:41:54.404Z,1.30
2022-11-04T18:44:22.658Z,1.40
2022-11-04T18:46:49.767Z,1.27
2022-11-04T18:49:17.461Z,2.63
2022-11-04T18:51:44.008Z,2.07
2022-11-04T18:54:12.001Z,2.27
2022-11-04T18:56:39.034Z,4.53
2022-11-04T18:59:12.259Z,7.17
2022-11-04T19:01:39.374Z,6.97
2022-11-04T19:04:06.541Z,6.53
2022-11-04T19:06:39.497Z,4.60
2022-11-04T19:09:40.088Z,2.97
2022-11-04T19:12:30.021Z,2.00
2022-11-04T19:14:56.532Z,1.57
2022-11-04T19:17:23.017Z,2.47
2022-11-04T19:19:50.651Z,4.77
2022-11-04T19:22:17.169Z,5.20
2022-11-04T19:24:43.631Z,5.53
2022-11-04T19:27:10.132Z,5.23
2022-11-04T19:29:36.612Z,3.80
2022-11-04T19:32:03.400Z,4.10
2022-11-04T19:34:29.904Z,4.07
2022-11-04T19:36:56.389Z,3.87
2022-11-04T19:39:22.924Z,4.27
2022-11-04T19:42:07.737Z,4.00
2022-11-04T19:44:34.274Z,4.50
2022-11-04T19:47:00.734Z,3.90
2022-11-04T19:49:30.673Z,3.00
2022-11-04T19:51:58.536Z,3.33
2022-11-04T19:54:25.087Z,2.90
2022-11-04T19:56:52.443Z,3.67
2022-11-04T19:59:18.961Z,2.97
2022-11-04T20:01:45.544Z,1.83
2022-11-04T20:04:12.627Z,1.70
2022-11-04T20:06:39.176Z,1.60
2022-11-04T20:09:08.881Z,1.20
2022-11-04T20:11:59.306Z,1.60
2022-11-04T20:14:27.717Z,1.63
2022-11-04T20:16:54.587Z,1.40
2022-11-04T20:19:22.876Z,1.40
2022-11-04T20:21:49.812Z,1.53
2022-11-04T20:24:16.309Z,1.93
2022-11-04T20:26:43.379Z,1.60
2022-11-04T20:29:11.095Z,1.63
2022-11-04T20:31:38.571Z,1.60
2022-11-04T20:34:08.465Z,1.63
2022-11-04T20:36:36.753Z,1.90
2022-11-04T20:39:18.907Z,1.70
2022-11-04T20:41:46.385Z,1.90
2022-11-04T20:44:14.873Z,1.70
2022-11-04T20:46:42.479Z,2.40
2022-11-04T20:49:09.362Z,2.07
2022-11-04T20:51:45.466Z,1.97
2022-11-04T20:54:14.840Z,2.00
2022-11-04T20:56:43.351Z,1.77
2022-11-04T20:59:13.033Z,1.40
2022-11-04T21:01:43.685Z,1.50
2022-11-04T21:04:14.412Z,1.70
2022-11-04T21:06:42.067Z,1.80
2022-11-04T21:09:13.448Z,1.77
2022-11-04T21:11:40.696Z,1.40
2022-11-04T21:14:10.852Z,1.47
2022-11-04T21:16:37.323Z,1.50
2022-11-04T21:19:04.976Z,1.70
2022-11-04T21:21:32.532Z,1.80
2022-11-04T21:24:05.059Z,1.60
2022-11-04T21:26:34.709Z,1.80
2022-11-04T21:29:05.603Z,1.90
2022-11-04T21:31:34.571Z,2.00
2022-11-04T21:34:02.785Z,1.87
2022-11-04T21:36:29.606Z,1.70
2022-11-04T21:38:58.277Z,1.90
2022-11-04T21:41:27.855Z,1.90
2022-11-04T21:44:00.307Z,1.70
2022-11-04T21:46:30.507Z,1.83
2022-11-04T21:48:58.017Z,2.20
2022-11-04T21:51:31.127Z,2.80
2022-11-04T21:53:59.703Z,2.70
2022-11-04T21:56:32.182Z,2.10
2022-11-04T21:58:59.813Z,2.40
2022-11-04T22:01:28.804Z,1.57
2022-11-04T22:03:58.994Z,2.13
2022-11-04T22:06:34.015Z,2.10
2022-11-04T22:09:03.950Z,1.27
2022-11-04T22:11:35.561Z,1.87
2022-11-04T22:14:05.146Z,1.80
2022-11-04T22:16:34.651Z,1.60
2022-11-04T22:19:03.884Z,2.00
2022-11-04T22:21:31.749Z,1.40
2022-11-04T22:23:59.898Z,1.50
2022-11-04T22:26:30.324Z,1.07
2022-11-04T22:28:57.275Z,1.20
2022-11-04T22:31:30.397Z,1.60
2022-11-04T22:33:57.850Z,2.03
2022-11-04T22:36:25.226Z,1.60
2022-11-04T22:38:51.742Z,1.30
2022-11-04T22:41:22.037Z,1.27
2022-11-04T22:43:48.688Z,1.10
2022-11-04T22:46:28.665Z,1.30
2022-11-04T22:48:55.531Z,1.57
2022-11-04T22:51:22.349Z,1.47
2022-11-04T22:53:57.842Z,1.10
2022-11-04T22:56:25.491Z,1.07
2022-11-04T22:58:53.295Z,1.30
2022-11-04T23:01:19.889Z,1.20
2022-11-04T23:03:52.613Z,1.00
2022-11-04T23:06:19.186Z,1.37
2022-11-04T23:08:45.672Z,1.10
2022-11-04T23:11:43.706Z,1.00
2022-11-04T23:14:35.265Z,0.80
2022-11-04T23:17:21.404Z,0.80
2022-11-04T23:19:50.112Z,0.80
2022-11-04T23:22:34.735Z,2.93
2022-11-04T23:25:08.792Z,2.20
2022-11-04T23:28:10.073Z,2.90
2022-11-04T23:30:41.517Z,10.07
2022-11-04T23:33:11.491Z,2.00
2022-11-04T23:36:03.989Z,1.30
2022-11-04T23:38:31.375Z,1.77
2022-11-04T23:41:20.272Z,3.67
2022-11-04T23:43:46.771Z,12.67
2022-11-04T23:46:31.957Z,2.70
2022-11-04T23:49:16.753Z,1.40
2022-11-04T23:52:01.713Z,1.27
2022-11-04T23:54:46.614Z,0.60
2022-11-04T23:57:36.632Z,0.70
